Breckenridge, TX (76424)

5:49 AM CDT on September 01, 2015 (GMT -0500)
West Breckenridge | | Change Station
CLOSE
Current Station
Personal Weather Station
Location: Breckenridge, TX
Elevation: 1263 ft
Nearby Weather Stations

Elev 1263 ft 32.75 °N, 98.93 °W | Updated 24 seconds ago

Clear
Clear
72.2 °F
Feels Like 72 °F
N
1.9
Wind Variable Wind from South
Gusts 3.0 mph

Today
High -- | Low -- °F
--% Chance of Precip.
Yesterday
High -- | Low -- °F
Precip. -- in
7:10 AM 8:00 PM
Waning Gibbous, 90% visible
Pressure 30.00 in
Visibility 10.0 miles
Clouds Clear
Heat Index 72 °F
Dew Point 66 °F
Humidity 81%
Rainfall 0.00 in
Snow Depth Not available.
UV 0 out of 12
Pollen 8.60 out of 12
Air Quality Not available.
Flu Activity Not available.
METAR KBKD 011035Z AUTO 17004KT 10SM CLR 24/19 A3000 RMK AO2 T02350190
Pressure 30.00 in
Visibility 10.0 miles
Clouds Clear
Heat Index 72 °F
Dew Point 66 °F
Humidity 81%
Rainfall 0.00 in
Snow Depth Not available.
UV 0 out of 12
Pollen 8.60 out of 12
Air Quality Not available.
Flu Activity Not available.
METAR KBKD 011035Z AUTO 17004KT 10SM CLR 24/19 A3000 RMK AO2 T02350190

10-Day Weather Forecast

×

Almanac

Astronomy

Sep. 01, 2015 Rise Set
Actual Time
Civil Twilight
Nautical Twilight
Astronomical Twilight
Moon
Length of Visible Light
Length of Day
Tomorrow will be .
, % of the Moon is Illuminated

Today's Extremes

State Highs State Lows

Community

WunderPhotos

Upload Photos

1,851,501 photos uploaded!

WunderBlogs® & News

Nearby

Air Quality

  Air Quality AQ Index Pollutant
Not available.

Snow Depth

Station Depth Elevation

Earthquake Activity

City Distance Mag. Time & Date
Minimum magnitude displayed is 2.5.

Coastal Water Temperatures

Place Temperature

Stations

Nearby Weather Stations

Station Location Temp. Windchill Dew Point Humidity Wind Precip. Elev Updated Type